createdAt,value
2022-12-06T00:00:02.993Z,38.30
2022-12-06T00:01:02.972Z,34.70
2022-12-06T00:02:04.027Z,23.70
2022-12-06T00:03:03.062Z,28.50
2022-12-06T00:04:02.946Z,25.70
2022-12-06T00:05:02.918Z,25.30
2022-12-06T00:06:02.916Z,27.10
2022-12-06T00:07:02.913Z,24.60
2022-12-06T00:08:02.959Z,23.20
2022-12-06T00:09:02.897Z,26.20
2022-12-06T00:10:02.897Z,24.30
2022-12-06T00:11:02.858Z,25.40
2022-12-06T00:12:02.875Z,25.90
2022-12-06T00:13:02.837Z,21.30
2022-12-06T00:14:02.841Z,22.80
2022-12-06T00:15:02.815Z,21.70
2022-12-06T00:16:02.888Z,23.90
2022-12-06T00:17:02.785Z,25.80
2022-12-06T00:18:02.823Z,24.00
2022-12-06T00:19:02.779Z,26.30
2022-12-06T00:20:02.878Z,21.90
2022-12-06T00:21:02.752Z,21.50
2022-12-06T00:22:02.743Z,29.90
2022-12-06T00:23:02.750Z,26.30
2022-12-06T00:24:02.735Z,24.00
2022-12-06T00:25:02.698Z,24.00
2022-12-06T00:26:02.697Z,21.70
2022-12-06T00:27:02.696Z,23.90
2022-12-06T00:28:02.678Z,29.00
2022-12-06T00:29:02.672Z,25.60
2022-12-06T00:30:02.725Z,22.30
2022-12-06T00:31:02.640Z,23.50
2022-12-06T00:32:02.732Z,26.60
2022-12-06T00:33:02.618Z,21.80
2022-12-06T00:34:02.634Z,23.70
2022-12-06T00:35:02.594Z,23.70
2022-12-06T00:36:02.608Z,22.30
2022-12-06T00:37:02.567Z,27.80
2022-12-06T00:38:02.562Z,28.80
2022-12-06T00:39:02.571Z,25.70
2022-12-06T00:40:02.586Z,21.80
2022-12-06T00:41:02.527Z,23.50
2022-12-06T00:42:02.549Z,25.10
2022-12-06T00:43:02.504Z,28.20
2022-12-06T00:44:02.500Z,33.30
2022-12-06T00:45:02.483Z,29.50
2022-12-06T00:46:02.605Z,21.70
2022-12-06T00:47:02.463Z,23.10
2022-12-06T00:48:02.476Z,23.40
2022-12-06T00:49:02.439Z,35.30
2022-12-06T00:50:02.521Z,22.30
2022-12-06T00:51:02.422Z,36.90
2022-12-06T00:52:02.415Z,38.60
2022-12-06T00:53:02.398Z,38.70
2022-12-06T00:54:02.425Z,33.00
2022-12-06T00:55:02.392Z,31.30
2022-12-06T00:56:02.382Z,40.50
2022-12-06T00:57:02.350Z,40.40
2022-12-06T00:58:02.355Z,38.70
2022-12-06T00:59:02.335Z,42.20
2022-12-06T01:00:02.627Z,33.20
2022-12-06T01:01:02.366Z,27.30
2022-12-06T01:02:02.315Z,25.10
2022-12-06T01:03:02.331Z,31.80
2022-12-06T01:04:02.282Z,27.20
2022-12-06T01:05:02.285Z,26.10
2022-12-06T01:06:02.287Z,24.80
2022-12-06T01:07:02.266Z,21.90
2022-12-06T01:08:02.309Z,18.60
2022-12-06T01:09:02.235Z,19.90
2022-12-06T01:10:02.299Z,24.50
2022-12-06T01:11:02.215Z,22.80
2022-12-06T01:12:02.202Z,22.90
2022-12-06T01:13:02.190Z,24.40
2022-12-06T01:14:02.179Z,23.10
2022-12-06T01:15:02.174Z,26.20
2022-12-06T01:16:02.156Z,26.10
2022-12-06T01:17:02.265Z,20.40
2022-12-06T01:18:02.125Z,21.40
2022-12-06T01:19:02.123Z,22.30
2022-12-06T01:20:02.337Z,23.50
2022-12-06T01:21:02.120Z,20.00
2022-12-06T01:22:02.084Z,20.80
2022-12-06T01:23:02.076Z,19.00
2022-12-06T01:24:02.058Z,16.30
2022-12-06T01:25:02.052Z,27.50
2022-12-06T01:26:02.040Z,27.10
2022-12-06T01:27:02.056Z,24.90
2022-12-06T01:28:02.017Z,24.30
2022-12-06T01:29:02.027Z,20.90
2022-12-06T01:30:02.375Z,22.40
2022-12-06T01:31:02.034Z,21.70
2022-12-06T01:32:01.976Z,21.40
2022-12-06T01:33:01.973Z,16.50
2022-12-06T01:34:01.963Z,19.10
2022-12-06T01:35:01.940Z,16.20
2022-12-06T01:36:01.925Z,17.50
2022-12-06T01:37:01.922Z,21.90
2022-12-06T01:38:06.084Z,16.90
2022-12-06T01:39:01.905Z,16.70
2022-12-06T01:40:02.201Z,16.30
2022-12-06T01:41:01.868Z,17.30
2022-12-06T01:42:01.879Z,19.30
2022-12-06T01:43:01.879Z,18.90
2022-12-06T01:44:01.833Z,19.80
2022-12-06T01:45:01.860Z,17.60
2022-12-06T01:46:01.857Z,17.40
2022-12-06T01:47:01.824Z,20.80
2022-12-06T01:48:01.793Z,18.70
2022-12-06T01:49:01.807Z,18.80
2022-12-06T01:50:01.899Z,17.60
2022-12-06T01:51:01.774Z,20.50
2022-12-06T01:52:01.743Z,17.90
2022-12-06T01:53:01.779Z,16.30
2022-12-06T01:54:01.759Z,18.00
2022-12-06T01:55:01.726Z,21.10
2022-12-06T01:56:01.736Z,19.00
2022-12-06T01:57:01.695Z,19.60
2022-12-06T01:58:01.689Z,19.10
2022-12-06T01:59:01.702Z,16.50
2022-12-06T02:00:02.121Z,19.50
2022-12-06T02:01:01.721Z,19.30
2022-12-06T02:02:01.737Z,18.00
2022-12-06T02:03:01.755Z,19.70
2022-12-06T02:04:01.645Z,16.30
2022-12-06T02:05:01.618Z,17.60
2022-12-06T02:06:01.596Z,16.70
2022-12-06T02:07:01.593Z,15.80
2022-12-06T02:08:01.651Z,17.40
2022-12-06T02:09:01.581Z,17.30
2022-12-06T02:10:01.706Z,19.80
2022-12-06T02:11:01.550Z,16.10
2022-12-06T02:12:01.544Z,17.30
2022-12-06T02:13:01.520Z,15.50
2022-12-06T02:14:01.516Z,19.50
2022-12-06T02:15:01.623Z,16.80
2022-12-06T02:16:01.504Z,19.50
2022-12-06T02:17:01.583Z,18.20
2022-12-06T02:18:01.483Z,16.00
2022-12-06T02:19:01.465Z,19.10
2022-12-06T02:20:01.785Z,17.40
2022-12-06T02:21:01.449Z,16.30
2022-12-06T02:22:01.434Z,22.10
2022-12-06T02:23:01.418Z,23.40
2022-12-06T02:24:01.398Z,24.90
2022-12-06T02:25:01.392Z,21.40
2022-12-06T02:26:01.374Z,20.10
2022-12-06T02:27:02.434Z,18.20
2022-12-06T02:28:01.381Z,19.00
2022-12-06T02:29:01.347Z,19.50
2022-12-06T02:30:01.611Z,20.50
2022-12-06T02:31:01.395Z,20.70
2022-12-06T02:32:01.324Z,23.80
2022-12-06T02:33:01.301Z,26.40
2022-12-06T02:34:01.304Z,27.20
2022-12-06T02:35:01.276Z,37.90
2022-12-06T02:36:01.267Z,37.20
2022-12-06T02:37:01.279Z,26.70
2022-12-06T02:38:01.248Z,25.00
2022-12-06T02:39:01.230Z,25.30
2022-12-06T02:40:01.482Z,27.50
2022-12-06T02:41:01.214Z,28.00
2022-12-06T02:42:01.193Z,32.30
2022-12-06T02:43:01.212Z,32.30
2022-12-06T02:44:01.176Z,32.50
2022-12-06T02:45:01.175Z,27.90
2022-12-06T02:46:01.240Z,30.70
2022-12-06T02:47:01.167Z,30.60
2022-12-06T02:48:01.124Z,29.00
2022-12-06T02:49:01.128Z,35.60
2022-12-06T02:50:01.493Z,29.70
2022-12-06T02:51:01.123Z,23.10
2022-12-06T02:52:01.100Z,30.20
2022-12-06T02:53:01.085Z,29.20
2022-12-06T02:54:01.082Z,27.80
2022-12-06T02:55:01.061Z,30.00
2022-12-06T02:56:01.043Z,26.70
2022-12-06T02:57:01.041Z,27.20
2022-12-06T02:58:01.038Z,26.80
2022-12-06T02:59:01.012Z,24.20
2022-12-06T03:00:01.434Z,24.40
2022-12-06T03:01:01.097Z,21.90
2022-12-06T03:02:01.159Z,20.30
2022-12-06T03:03:01.069Z,20.80
2022-12-06T03:04:00.963Z,17.00
2022-12-06T03:05:00.947Z,19.00
2022-12-06T03:06:00.944Z,18.00
2022-12-06T03:07:00.924Z,20.20
2022-12-06T03:08:01.025Z,23.80
2022-12-06T03:09:00.917Z,17.90
2022-12-06T03:10:01.184Z,18.90
2022-12-06T03:11:00.887Z,23.80
2022-12-06T03:12:00.867Z,19.20
2022-12-06T03:13:00.907Z,15.80
2022-12-06T03:14:00.848Z,26.30
2022-12-06T03:15:00.847Z,22.40
2022-12-06T03:16:00.872Z,18.50
2022-12-06T03:17:00.819Z,20.80
2022-12-06T03:18:00.802Z,25.60
2022-12-06T03:19:00.843Z,35.70
2022-12-06T03:20:01.301Z,22.50
2022-12-06T03:21:00.781Z,26.10
2022-12-06T03:22:00.758Z,46.10
2022-12-06T03:23:00.760Z,29.00
2022-12-06T03:24:00.745Z,33.00
2022-12-06T03:25:00.756Z,30.50
2022-12-06T03:26:00.711Z,71.70
2022-12-06T03:27:00.701Z,33.80
2022-12-06T03:28:00.716Z,25.30
2022-12-06T03:29:00.682Z,55.90
2022-12-06T03:30:01.010Z,21.40
2022-12-06T03:31:00.713Z,35.70
2022-12-06T03:32:00.643Z,21.40
2022-12-06T03:33:00.640Z,26.20
2022-12-06T03:34:00.645Z,41.30
2022-12-06T03:35:00.646Z,32.90
2022-12-06T03:36:00.617Z,25.60
2022-12-06T03:37:00.621Z,38.00
2022-12-06T03:38:00.587Z,62.40
2022-12-06T03:39:00.573Z,23.30
2022-12-06T03:40:00.890Z,75.00
2022-12-06T03:41:00.576Z,46.80
2022-12-06T03:42:00.538Z,39.80
2022-12-06T03:43:00.551Z,34.80
2022-12-06T03:44:00.515Z,30.30
2022-12-06T03:45:00.500Z,32.30
2022-12-06T03:46:00.725Z,34.20
2022-12-06T03:47:00.547Z,27.90
2022-12-06T03:48:00.471Z,29.00
2022-12-06T03:49:00.487Z,29.90
2022-12-06T03:50:00.813Z,27.20
2022-12-06T03:51:00.463Z,27.00
2022-12-06T03:52:00.429Z,29.60
2022-12-06T03:53:00.445Z,32.40
2022-12-06T03:54:00.400Z,22.30
2022-12-06T03:55:00.439Z,41.10
2022-12-06T03:56:00.379Z,23.20
2022-12-06T03:57:00.369Z,26.80
2022-12-06T03:58:00.377Z,35.80
2022-12-06T03:59:00.370Z,25.30
2022-12-06T04:00:00.685Z,26.50
2022-12-06T04:01:00.335Z,26.00
2022-12-06T04:02:00.381Z,33.50
2022-12-06T04:03:00.330Z,28.70
2022-12-06T04:04:00.351Z,29.30
2022-12-06T04:05:00.284Z,19.80
2022-12-06T04:06:00.279Z,29.40
2022-12-06T04:07:00.283Z,15.50
2022-12-06T04:08:00.300Z,24.80
2022-12-06T04:09:00.251Z,26.30
2022-12-06T04:10:00.522Z,20.70
2022-12-06T04:11:00.221Z,37.20
2022-12-06T04:12:00.203Z,25.10
2022-12-06T04:13:00.197Z,22.70
2022-12-06T04:14:00.280Z,19.70
2022-12-06T04:15:00.172Z,20.00
2022-12-06T04:16:00.680Z,26.50
2022-12-06T04:17:00.164Z,19.70
2022-12-06T04:18:00.145Z,18.80
2022-12-06T04:19:00.130Z,19.70
2022-12-06T04:20:00.583Z,21.90
2022-12-06T04:21:00.109Z,17.70
2022-12-06T04:22:00.118Z,16.70
2022-12-06T04:23:00.120Z,18.80
2022-12-06T04:24:00.075Z,20.20
2022-12-06T04:25:00.066Z,19.90
2022-12-06T04:26:00.069Z,24.50
2022-12-06T04:27:00.048Z,17.50
2022-12-06T04:28:01.111Z,20.10
2022-12-06T04:29:00.013Z,23.30
2022-12-06T04:30:00.292Z,17.40
2022-12-06T04:31:00.071Z,21.20
2022-12-06T04:32:00.134Z,19.40
2022-12-06T04:32:59.979Z,33.60
2022-12-06T04:33:59.982Z,26.30
2022-12-06T04:34:59.950Z,23.80
2022-12-06T04:35:59.942Z,25.10
2022-12-06T04:36:59.938Z,44.80
2022-12-06T04:37:59.928Z,26.10
2022-12-06T04:38:59.954Z,21.30
2022-12-06T04:40:00.283Z,36.30
2022-12-06T04:40:59.888Z,30.00
2022-12-06T04:41:59.863Z,20.90
2022-12-06T04:42:59.886Z,26.00
2022-12-06T04:43:59.864Z,36.20
2022-12-06T04:44:59.871Z,30.20
2022-12-06T04:45:59.827Z,22.10
2022-12-06T04:46:59.977Z,25.10
2022-12-06T04:47:59.806Z,57.10
2022-12-06T04:48:59.802Z,33.90
2022-12-06T04:50:00.061Z,29.70
2022-12-06T04:50:59.793Z,28.40
2022-12-06T04:51:59.755Z,24.10
2022-12-06T04:52:59.759Z,24.10
2022-12-06T04:53:59.735Z,20.50
2022-12-06T04:54:59.749Z,24.00
2022-12-06T04:55:59.738Z,30.40
2022-12-06T04:56:59.707Z,22.90
2022-12-06T04:57:59.694Z,26.10
2022-12-06T04:58:59.691Z,19.10
2022-12-06T05:00:00.089Z,28.10
2022-12-06T05:00:59.695Z,23.10
2022-12-06T05:01:59.656Z,36.20
2022-12-06T05:02:59.639Z,20.00
2022-12-06T05:03:59.736Z,21.00
2022-12-06T05:04:59.624Z,17.50
2022-12-06T05:05:59.632Z,34.30
2022-12-06T05:06:59.621Z,28.60
2022-12-06T05:07:59.635Z,24.50
2022-12-06T05:08:59.582Z,18.30
2022-12-06T05:10:00.003Z,26.60
2022-12-06T05:10:59.570Z,32.20
2022-12-06T05:11:59.541Z,41.20
2022-12-06T05:12:59.548Z,24.80
2022-12-06T05:13:59.519Z,24.30
2022-12-06T05:14:59.513Z,21.00
2022-12-06T05:15:59.555Z,27.80
2022-12-06T05:16:59.495Z,25.30
2022-12-06T05:17:59.491Z,26.20
2022-12-06T05:18:59.497Z,19.60
2022-12-06T05:19:59.718Z,21.30
2022-12-06T05:20:59.448Z,24.50
2022-12-06T05:21:59.433Z,22.80
2022-12-06T05:22:59.438Z,33.90
2022-12-06T05:23:59.415Z,20.00
2022-12-06T05:24:59.393Z,20.40
2022-12-06T05:25:59.389Z,24.00
2022-12-06T05:26:59.414Z,24.00
2022-12-06T05:27:59.361Z,21.40
2022-12-06T05:28:59.355Z,30.90
2022-12-06T05:29:59.681Z,30.80
2022-12-06T05:30:59.326Z,30.00
2022-12-06T05:31:59.449Z,26.40
2022-12-06T05:32:59.311Z,26.20
2022-12-06T05:33:59.293Z,26.90
2022-12-06T05:34:59.286Z,27.60
2022-12-06T05:35:59.291Z,29.30
2022-12-06T05:36:59.266Z,24.80
2022-12-06T05:37:59.277Z,26.60
2022-12-06T05:38:59.238Z,28.40
2022-12-06T05:39:59.658Z,23.20
2022-12-06T05:40:59.226Z,26.10
2022-12-06T05:41:59.228Z,22.60
2022-12-06T05:42:59.215Z,25.00
2022-12-06T05:43:59.212Z,28.30
2022-12-06T05:44:59.177Z,26.30
2022-12-06T05:45:59.205Z,23.90
2022-12-06T05:46:59.171Z,25.30
2022-12-06T05:47:59.134Z,32.60
2022-12-06T05:48:59.159Z,42.10
2022-12-06T05:49:59.319Z,26.10
2022-12-06T05:50:59.111Z,39.30
2022-12-06T05:52:03.829Z,24.70
2022-12-06T05:53:00.085Z,26.40
2022-12-06T05:53:59.089Z,24.70
2022-12-06T05:54:59.085Z,30.40
2022-12-06T05:55:59.060Z,26.40
2022-12-06T05:56:59.041Z,21.70
2022-12-06T05:57:59.045Z,28.10
2022-12-06T05:58:59.030Z,43.80
2022-12-06T05:59:59.292Z,42.60
2022-12-06T06:00:59.021Z,34.50
2022-12-06T06:01:59.158Z,55.00
2022-12-06T06:02:59.173Z,22.10
2022-12-06T06:03:58.968Z,26.30
2022-12-06T06:04:58.976Z,37.10
2022-12-06T06:05:58.961Z,31.80
2022-12-06T06:06:58.993Z,23.90
2022-12-06T06:07:58.972Z,38.70
2022-12-06T06:08:58.913Z,25.80
2022-12-06T06:09:59.148Z,50.40
2022-12-06T06:10:58.894Z,53.50
2022-12-06T06:11:58.912Z,32.30
2022-12-06T06:12:58.871Z,48.00
2022-12-06T06:13:58.849Z,37.80
2022-12-06T06:14:58.884Z,34.50
2022-12-06T06:15:58.834Z,42.20
2022-12-06T06:16:58.906Z,44.20
2022-12-06T06:17:58.804Z,48.50
2022-12-06T06:18:58.831Z,97.20
2022-12-06T06:19:58.800Z,69.20
2022-12-06T06:20:58.804Z,31.40
2022-12-06T06:21:58.783Z,31.60
2022-12-06T06:22:58.751Z,25.40
2022-12-06T06:23:58.775Z,40.50
2022-12-06T06:24:58.749Z,24.10
2022-12-06T06:25:58.723Z,61.30
2022-12-06T06:26:58.716Z,63.80
2022-12-06T06:27:58.699Z,43.50
2022-12-06T06:28:58.692Z,37.60
2022-12-06T06:29:59.063Z,79.80
2022-12-06T06:30:58.690Z,23.40
2022-12-06T06:31:58.692Z,31.20
2022-12-06T06:32:58.669Z,31.60
2022-12-06T06:33:58.635Z,19.30
2022-12-06T06:34:58.638Z,19.80
2022-12-06T06:35:58.612Z,22.90
2022-12-06T06:36:58.597Z,25.10
2022-12-06T06:37:58.598Z,39.10
2022-12-06T06:38:58.577Z,25.60
2022-12-06T06:39:58.840Z,26.30
2022-12-06T06:40:58.660Z,33.30
2022-12-06T06:41:58.547Z,49.30
2022-12-06T06:42:58.555Z,87.70
2022-12-06T06:43:58.534Z,55.20
2022-12-06T06:44:58.586Z,52.40
2022-12-06T06:45:58.551Z,61.40
2022-12-06T06:46:58.541Z,83.30
2022-12-06T06:47:58.477Z,75.40
2022-12-06T06:48:58.476Z,87.10
2022-12-06T06:49:58.880Z,56.50
2022-12-06T06:50:58.461Z,84.10
2022-12-06T06:51:58.433Z,69.10
2022-12-06T06:52:58.422Z,65.90
2022-12-06T06:53:58.426Z,58.80
2022-12-06T06:54:58.421Z,73.20
2022-12-06T06:55:58.391Z,59.90
2022-12-06T06:56:58.403Z,54.00
2022-12-06T06:57:58.355Z,41.30
2022-12-06T06:58:58.384Z,45.90
2022-12-06T06:59:58.675Z,71.50
2022-12-06T07:00:58.435Z,56.70
2022-12-06T07:01:58.458Z,61.30
2022-12-06T07:02:58.379Z,136.60
2022-12-06T07:03:58.324Z,102.40
2022-12-06T07:04:58.292Z,52.10
2022-12-06T07:05:58.284Z,58.20
2022-12-06T07:06:58.287Z,61.20
2022-12-06T07:07:58.322Z,69.50
2022-12-06T07:08:58.250Z,103.80
2022-12-06T07:09:58.768Z,88.20
2022-12-06T07:10:58.229Z,142.00
2022-12-06T07:11:58.228Z,112.20
2022-12-06T07:12:58.202Z,79.60
2022-12-06T07:13:58.189Z,74.00
2022-12-06T07:14:58.192Z,47.10
2022-12-06T07:15:58.175Z,57.30
2022-12-06T07:16:58.251Z,63.00
2022-12-06T07:17:58.156Z,52.50
2022-12-06T07:18:58.172Z,26.20
2022-12-06T07:19:58.399Z,54.20
2022-12-06T07:20:58.109Z,39.90
2022-12-06T07:21:58.106Z,38.70
2022-12-06T07:22:58.117Z,28.20
2022-12-06T07:23:58.080Z,59.40
2022-12-06T07:24:58.070Z,42.50
2022-12-06T07:25:58.056Z,36.40
2022-12-06T07:26:58.074Z,24.50
2022-12-06T07:27:58.053Z,28.30
2022-12-06T07:28:58.047Z,33.90
2022-12-06T07:29:58.364Z,26.70
2022-12-06T07:30:58.087Z,37.10
2022-12-06T07:31:57.986Z,25.20
2022-12-06T07:32:58.000Z,46.30
2022-12-06T07:33:57.970Z,30.50
2022-12-06T07:34:57.981Z,21.30
2022-12-06T07:36:14.078Z,26.20
2022-12-06T07:36:58.949Z,28.80
2022-12-06T07:37:57.927Z,25.70
2022-12-06T07:38:57.927Z,38.50
2022-12-06T07:39:58.099Z,33.70
2022-12-06T07:41:05.435Z,31.30
2022-12-06T07:41:58.881Z,31.40
2022-12-06T07:42:57.861Z,20.40
2022-12-06T07:43:57.858Z,25.20
2022-12-06T07:45:01.569Z,19.50
2022-12-06T07:45:57.895Z,20.60
2022-12-06T07:46:57.818Z,17.10
2022-12-06T07:47:57.808Z,24.10
2022-12-06T07:48:57.797Z,34.00
2022-12-06T07:49:58.141Z,22.00
2022-12-06T07:50:57.796Z,18.50
2022-12-06T07:51:57.767Z,14.40
2022-12-06T07:52:57.780Z,18.90
2022-12-06T07:53:57.733Z,21.80
2022-12-06T07:54:57.732Z,25.90
2022-12-06T07:55:57.739Z,17.00
2022-12-06T07:56:57.712Z,19.20
2022-12-06T07:57:57.712Z,29.90
2022-12-06T07:58:57.694Z,22.00
2022-12-06T07:59:57.845Z,30.70
2022-12-06T08:00:57.689Z,31.80
2022-12-06T08:01:57.713Z,31.60
2022-12-06T08:02:57.664Z,30.40
2022-12-06T08:03:57.768Z,26.50
2022-12-06T08:04:57.717Z,32.50
2022-12-06T08:05:57.599Z,38.00
2022-12-06T08:06:57.627Z,31.20
2022-12-06T08:07:57.672Z,38.10
2022-12-06T08:08:57.598Z,16.90
2022-12-06T08:09:57.920Z,24.50
2022-12-06T08:10:57.553Z,43.60
2022-12-06T08:11:57.531Z,23.70
2022-12-06T08:12:57.537Z,34.60
2022-12-06T08:13:57.507Z,32.80
2022-12-06T08:14:59.795Z,26.00
2022-12-06T08:15:57.535Z,28.10
2022-12-06T08:16:57.504Z,23.30
2022-12-06T08:17:57.472Z,22.00
2022-12-06T08:18:57.455Z,22.90
2022-12-06T08:19:57.630Z,32.60
2022-12-06T08:20:57.467Z,24.80
2022-12-06T08:21:57.441Z,18.10
2022-12-06T08:22:57.450Z,16.40
2022-12-06T08:23:57.408Z,25.40
2022-12-06T08:24:57.397Z,23.80
2022-12-06T08:25:57.403Z,22.70
2022-12-06T08:26:57.380Z,18.50
2022-12-06T08:27:57.360Z,20.00
2022-12-06T08:28:57.350Z,20.20
2022-12-06T08:29:57.523Z,27.90
2022-12-06T08:31:02.847Z,20.20
2022-12-06T08:31:58.316Z,25.80
2022-12-06T08:32:57.308Z,29.60
2022-12-06T08:33:57.290Z,23.10
2022-12-06T08:34:57.292Z,22.70
2022-12-06T08:35:57.298Z,20.80
2022-12-06T08:37:03.008Z,17.40
2022-12-06T08:37:58.253Z,18.30
2022-12-06T08:38:57.261Z,15.60
2022-12-06T08:39:57.296Z,18.20
2022-12-06T08:40:57.240Z,18.40
2022-12-06T08:41:57.205Z,20.20
2022-12-06T08:42:57.199Z,23.80
2022-12-06T08:43:57.178Z,24.70
2022-12-06T08:44:57.178Z,14.60
2022-12-06T08:45:57.221Z,25.60
2022-12-06T08:46:57.176Z,16.20
2022-12-06T08:47:57.142Z,16.90
2022-12-06T08:48:57.135Z,14.70
2022-12-06T08:49:57.124Z,17.70
2022-12-06T08:50:57.101Z,16.80
2022-12-06T08:51:57.136Z,18.40
2022-12-06T08:52:57.107Z,19.50
2022-12-06T08:53:57.093Z,27.00
2022-12-06T08:54:58.093Z,27.00
2022-12-06T08:56:02.271Z,26.40
2022-12-06T08:56:58.061Z,28.70
2022-12-06T08:57:57.021Z,25.00
2022-12-06T08:58:57.046Z,19.00
2022-12-06T08:59:57.012Z,21.70
2022-12-06T09:00:57.002Z,16.70
2022-12-06T09:01:57.088Z,19.20
2022-12-06T09:02:59.048Z,19.60
2022-12-06T09:03:56.966Z,28.40
2022-12-06T09:04:57.013Z,27.80
2022-12-06T09:05:56.941Z,18.40
2022-12-06T09:06:56.925Z,18.40
2022-12-06T09:07:56.994Z,18.10
2022-12-06T09:08:56.900Z,18.90
2022-12-06T09:09:56.895Z,22.20
2022-12-06T09:10:56.955Z,25.30
2022-12-06T09:11:56.864Z,38.10
2022-12-06T09:12:56.865Z,61.10
2022-12-06T09:13:56.851Z,75.00
2022-12-06T09:14:56.841Z,57.50
2022-12-06T09:15:56.881Z,44.70
2022-12-06T09:16:56.856Z,44.20
2022-12-06T09:17:56.798Z,32.90
2022-12-06T09:18:56.797Z,30.40
2022-12-06T09:20:00.761Z,27.80
2022-12-06T09:20:57.802Z,35.40
2022-12-06T09:21:56.757Z,42.90
2022-12-06T09:22:56.757Z,40.80
2022-12-06T09:23:56.730Z,42.80
2022-12-06T09:24:56.738Z,42.00
2022-12-06T09:25:56.716Z,35.40
2022-12-06T09:26:56.753Z,57.00
2022-12-06T09:27:56.694Z,60.10
2022-12-06T09:28:56.687Z,100.90
2022-12-06T09:29:56.675Z,132.70
2022-12-06T09:30:56.716Z,80.90
2022-12-06T09:31:56.649Z,71.70
2022-12-06T09:32:56.657Z,40.10
2022-12-06T09:33:56.633Z,30.60
2022-12-06T09:34:56.617Z,23.90
2022-12-06T09:35:56.607Z,21.90
2022-12-06T09:36:56.598Z,22.70
2022-12-06T09:37:56.623Z,26.10
2022-12-06T09:38:56.593Z,24.10
2022-12-06T09:39:56.572Z,23.60
2022-12-06T09:40:56.551Z,22.80
2022-12-06T09:41:56.545Z,23.50
2022-12-06T09:42:56.565Z,44.20
2022-12-06T09:43:56.520Z,40.00
2022-12-06T09:44:56.507Z,39.10
2022-12-06T09:45:56.517Z,47.00
2022-12-06T09:46:56.568Z,44.70
2022-12-06T09:47:56.516Z,48.30
2022-12-06T09:48:56.462Z,34.00
2022-12-06T09:49:56.468Z,30.40
2022-12-06T09:50:56.439Z,25.30
2022-12-06T09:51:56.434Z,21.10
2022-12-06T09:52:56.419Z,19.20
2022-12-06T09:53:56.429Z,19.20
2022-12-06T09:55:00.260Z,22.40
2022-12-06T09:55:56.381Z,22.00
2022-12-06T09:56:56.380Z,17.60
2022-12-06T09:57:56.365Z,18.80
2022-12-06T09:58:56.390Z,18.40
2022-12-06T09:59:56.368Z,20.30
2022-12-06T10:00:56.336Z,23.40
2022-12-06T10:01:56.383Z,23.80
2022-12-06T10:02:56.352Z,24.50
2022-12-06T10:03:56.308Z,22.60
2022-12-06T10:04:56.288Z,23.50
2022-12-06T10:05:56.279Z,24.80
2022-12-06T10:06:56.260Z,25.30
2022-12-06T10:07:56.455Z,22.80
2022-12-06T10:08:56.368Z,22.90
2022-12-06T10:09:56.244Z,22.00
2022-12-06T10:10:56.244Z,19.90
2022-12-06T10:11:56.211Z,19.60
2022-12-06T10:12:56.199Z,20.10
2022-12-06T10:13:56.208Z,17.30
2022-12-06T10:14:56.204Z,18.00
2022-12-06T10:15:56.228Z,17.70
2022-12-06T10:16:56.152Z,17.90
2022-12-06T10:17:56.251Z,17.40
2022-12-06T10:18:56.146Z,14.50
2022-12-06T10:19:56.123Z,15.40
2022-12-06T10:20:56.130Z,13.40
2022-12-06T10:21:56.101Z,12.90
2022-12-06T10:22:56.089Z,15.30
2022-12-06T10:24:00.200Z,19.70
2022-12-06T10:24:57.089Z,20.20
2022-12-06T10:25:56.059Z,17.40
2022-12-06T10:26:56.045Z,20.90
2022-12-06T10:27:56.034Z,19.50
2022-12-06T10:28:56.028Z,21.50
2022-12-06T10:29:56.038Z,19.40
2022-12-06T10:30:56.128Z,22.10
2022-12-06T10:31:56.113Z,19.20
2022-12-06T10:32:55.995Z,13.90
2022-12-06T10:33:55.963Z,15.30
2022-12-06T10:34:55.954Z,13.20
2022-12-06T10:35:55.969Z,15.70
2022-12-06T10:36:55.937Z,12.40
2022-12-06T10:37:55.948Z,14.90
2022-12-06T10:38:55.906Z,12.70
2022-12-06T10:39:55.910Z,14.00
2022-12-06T10:40:55.926Z,12.40
2022-12-06T10:41:55.881Z,11.00
2022-12-06T10:42:55.876Z,9.50
2022-12-06T10:43:55.851Z,12.00
2022-12-06T10:44:56.868Z,13.30
2022-12-06T10:45:55.844Z,14.00
2022-12-06T10:46:55.928Z,15.60
2022-12-06T10:47:55.820Z,14.90
2022-12-06T10:48:55.792Z,10.30
2022-12-06T10:49:55.793Z,14.40
2022-12-06T10:50:55.800Z,11.70
2022-12-06T10:51:55.772Z,11.80
2022-12-06T10:53:00.228Z,9.60
2022-12-06T10:53:56.852Z,13.50
2022-12-06T10:54:55.738Z,10.80
2022-12-06T10:55:55.734Z,14.30
2022-12-06T10:56:55.733Z,10.40
2022-12-06T10:57:55.731Z,11.00
2022-12-06T10:58:55.711Z,12.60
2022-12-06T10:59:55.691Z,14.20
2022-12-06T11:00:55.766Z,11.60
2022-12-06T11:01:55.769Z,11.80
2022-12-06T11:02:55.685Z,14.20
2022-12-06T11:03:55.637Z,14.30
2022-12-06T11:04:55.636Z,12.00
2022-12-06T11:05:55.624Z,10.90
2022-12-06T11:06:55.601Z,12.40
2022-12-06T11:07:55.640Z,11.60
2022-12-06T11:08:55.600Z,9.90
2022-12-06T11:09:55.569Z,13.00
2022-12-06T11:10:55.549Z,13.10
2022-12-06T11:11:55.550Z,10.70
2022-12-06T11:12:55.543Z,10.40
2022-12-06T11:13:55.550Z,10.50
2022-12-06T11:14:55.623Z,9.70
2022-12-06T11:15:55.549Z,11.40
2022-12-06T11:16:55.500Z,11.10
2022-12-06T11:18:00.887Z,13.20
2022-12-06T11:18:56.511Z,10.50
2022-12-06T11:19:55.455Z,11.70
2022-12-06T11:20:55.468Z,10.60
2022-12-06T11:21:55.438Z,12.00
2022-12-06T11:22:55.431Z,11.30
2022-12-06T11:23:55.438Z,11.10
2022-12-06T11:24:55.423Z,11.00
2022-12-06T11:25:55.414Z,12.70
2022-12-06T11:26:55.392Z,10.70
2022-12-06T11:27:55.373Z,10.60
2022-12-06T11:28:55.373Z,12.30
2022-12-06T11:29:55.369Z,11.00
2022-12-06T11:30:55.344Z,11.00
2022-12-06T11:31:55.386Z,11.30
2022-12-06T11:32:55.338Z,9.20
2022-12-06T11:33:55.339Z,11.20
2022-12-06T11:34:55.306Z,12.00
2022-12-06T11:35:55.286Z,12.20
2022-12-06T11:36:59.804Z,11.90
2022-12-06T11:37:56.265Z,10.10
2022-12-06T11:38:55.263Z,11.60
2022-12-06T11:39:55.265Z,11.30
2022-12-06T11:40:55.240Z,10.90
2022-12-06T11:41:55.262Z,11.60
2022-12-06T11:42:55.207Z,11.70
2022-12-06T11:43:55.221Z,13.70
2022-12-06T11:44:55.195Z,12.10
2022-12-06T11:45:55.178Z,9.70
2022-12-06T11:46:55.246Z,10.50
2022-12-06T11:47:55.173Z,11.20
2022-12-06T11:48:55.148Z,9.00
2022-12-06T11:49:55.129Z,9.50
2022-12-06T11:50:55.151Z,12.50
2022-12-06T11:51:55.129Z,9.20
2022-12-06T11:52:55.134Z,9.10
2022-12-06T11:53:55.099Z,8.10
2022-12-06T11:54:55.088Z,10.30
2022-12-06T11:55:55.070Z,10.10
2022-12-06T11:56:55.060Z,8.80
2022-12-06T11:57:55.042Z,8.60
2022-12-06T11:58:55.042Z,9.70
2022-12-06T11:59:55.025Z,8.70
2022-12-06T12:00:55.013Z,8.70
2022-12-06T12:01:55.068Z,8.90
2022-12-06T12:02:55.067Z,8.90
2022-12-06T12:03:54.977Z,9.10
2022-12-06T12:04:54.985Z,10.40
2022-12-06T12:05:54.951Z,8.30
2022-12-06T12:06:54.960Z,8.00
2022-12-06T12:07:55.023Z,7.50
2022-12-06T12:08:54.919Z,7.70
2022-12-06T12:09:54.912Z,6.10
2022-12-06T12:10:54.926Z,10.20
2022-12-06T12:11:54.892Z,9.40
2022-12-06T12:12:54.872Z,6.50
2022-12-06T12:13:55.937Z,7.10
2022-12-06T12:14:54.849Z,6.30
2022-12-06T12:15:54.855Z,9.10
2022-12-06T12:16:54.946Z,6.60
2022-12-06T12:17:54.835Z,5.20
2022-12-06T12:18:54.807Z,7.60
2022-12-06T12:19:54.801Z,7.30
2022-12-06T12:20:54.792Z,6.10
2022-12-06T12:21:54.797Z,5.50
2022-12-06T12:22:54.808Z,5.40
2022-12-06T12:23:54.761Z,6.00
2022-12-06T12:25:55.758Z,5.90
2022-12-06T12:26:54.713Z,4.90
2022-12-06T12:27:54.812Z,4.80
2022-12-06T12:28:54.706Z,4.50
2022-12-06T12:29:54.692Z,5.60
2022-12-06T12:30:54.684Z,4.50
2022-12-06T12:31:54.752Z,5.40
2022-12-06T12:32:54.666Z,4.90
2022-12-06T12:33:54.642Z,4.10
2022-12-06T12:34:54.649Z,4.10
2022-12-06T12:35:54.627Z,4.40
2022-12-06T12:36:54.641Z,3.30
2022-12-06T12:37:54.611Z,4.50
2022-12-06T12:38:54.620Z,3.00
2022-12-06T12:39:54.593Z,3.20
2022-12-06T12:40:54.562Z,3.10
2022-12-06T12:41:54.601Z,4.10
2022-12-06T12:42:54.643Z,2.70
2022-12-06T12:44:07.657Z,2.90
2022-12-06T12:44:55.526Z,2.80
2022-12-06T12:45:59.562Z,2.70
2022-12-06T12:46:55.550Z,2.80
2022-12-06T12:47:54.488Z,3.50
2022-12-06T12:48:54.473Z,2.80
2022-12-06T12:49:54.472Z,3.30
2022-12-06T12:50:54.476Z,3.10
2022-12-06T12:51:54.463Z,2.60
2022-12-06T12:52:54.477Z,3.20
2022-12-06T12:53:54.426Z,2.80
2022-12-06T12:54:54.443Z,2.60